createdAt,value
2017-12-02T00:01:00.750Z,25.27
2017-12-02T00:03:34.294Z,23.50
2017-12-02T00:06:08.354Z,43.27
2017-12-02T00:08:40.946Z,32.63
2017-12-02T00:11:13.491Z,29.70
2017-12-02T00:13:46.991Z,26.30
2017-12-02T00:16:20.637Z,29.27
2017-12-02T00:18:53.555Z,36.80
2017-12-02T00:21:27.016Z,36.87
2017-12-02T00:23:59.650Z,27.80
2017-12-02T00:26:32.800Z,30.83
2017-12-02T00:29:05.598Z,33.80
2017-12-02T00:31:38.839Z,27.67
2017-12-02T00:34:11.319Z,33.90
2017-12-02T00:36:43.879Z,29.70
2017-12-02T00:39:17.167Z,29.83
2017-12-02T00:41:49.940Z,34.47
2017-12-02T00:44:23.192Z,31.63
2017-12-02T00:46:55.960Z,33.33
2017-12-02T00:49:29.379Z,36.47
2017-12-02T00:52:02.164Z,34.27
2017-12-02T00:54:35.328Z,31.43
2017-12-02T00:57:08.035Z,31.73
2017-12-02T00:59:40.348Z,35.23
2017-12-02T01:02:13.563Z,30.47
2017-12-02T01:04:47.163Z,33.53
2017-12-02T01:07:20.651Z,27.90
2017-12-02T01:09:53.468Z,42.00
2017-12-02T01:12:26.836Z,42.30
2017-12-02T01:14:59.460Z,54.30
2017-12-02T01:17:32.039Z,44.23
2017-12-02T01:20:04.617Z,35.83
2017-12-02T01:22:37.864Z,38.60
2017-12-02T01:25:10.770Z,36.63
2017-12-02T01:27:44.488Z,30.63
2017-12-02T01:30:18.267Z,27.13
2017-12-02T01:32:51.498Z,30.07
2017-12-02T01:35:24.283Z,30.60
2017-12-02T01:37:57.067Z,30.47
2017-12-02T01:40:29.447Z,36.43
2017-12-02T01:43:02.377Z,35.03
2017-12-02T01:45:36.299Z,38.27
2017-12-02T01:48:09.170Z,35.20
2017-12-02T01:50:42.483Z,28.87
2017-12-02T01:53:15.597Z,35.40
2017-12-02T01:55:48.194Z,26.60
2017-12-02T01:58:20.872Z,30.57
2017-12-02T02:00:53.964Z,22.40
2017-12-02T02:03:26.948Z,26.77
2017-12-02T02:06:00.337Z,28.03
2017-12-02T02:08:32.983Z,27.60
2017-12-02T02:11:06.324Z,25.33
2017-12-02T02:13:40.477Z,26.60
2017-12-02T02:16:13.807Z,24.63
2017-12-02T02:18:47.501Z,22.43
2017-12-02T02:21:21.390Z,23.17
2017-12-02T02:23:55.008Z,19.30
2017-12-02T02:26:28.260Z,24.73
2017-12-02T02:29:01.569Z,24.27
2017-12-02T02:31:35.106Z,20.53
2017-12-02T02:34:07.825Z,19.67
2017-12-02T02:36:41.279Z,24.10
2017-12-02T02:39:15.075Z,20.77
2017-12-02T02:41:48.948Z,22.73
2017-12-02T02:44:21.808Z,23.73
2017-12-02T02:46:54.719Z,23.20
2017-12-02T02:49:27.182Z,23.03
2017-12-02T02:51:59.811Z,21.73
2017-12-02T02:54:33.157Z,23.53
2017-12-02T02:57:05.622Z,22.10
2017-12-02T02:59:38.728Z,20.97
2017-12-02T03:02:11.705Z,25.10
2017-12-02T03:04:44.222Z,23.07
2017-12-02T03:07:17.493Z,21.17
2017-12-02T03:09:50.042Z,23.70
2017-12-02T03:12:22.703Z,23.47
2017-12-02T03:14:55.099Z,27.17
2017-12-02T03:17:28.413Z,23.73
2017-12-02T03:20:01.101Z,32.23
2017-12-02T03:22:33.736Z,86.67
2017-12-02T03:25:07.035Z,133.03
2017-12-02T03:27:40.099Z,81.87
2017-12-02T03:30:13.059Z,155.47
2017-12-02T03:32:45.635Z,94.50
2017-12-02T03:35:18.887Z,79.40
2017-12-02T03:37:51.768Z,56.53
2017-12-02T03:40:25.931Z,56.23
2017-12-02T03:42:59.594Z,45.40
2017-12-02T03:45:32.184Z,44.00
2017-12-02T03:48:05.308Z,47.83
2017-12-02T03:50:37.957Z,54.43
2017-12-02T03:53:11.269Z,49.03
2017-12-02T03:55:44.474Z,53.70
2017-12-02T03:58:17.521Z,56.70
2017-12-02T04:00:50.176Z,76.47
2017-12-02T04:03:24.521Z,42.53
2017-12-02T04:05:57.690Z,43.27
2017-12-02T04:08:30.284Z,44.07
2017-12-02T04:11:04.038Z,38.53
2017-12-02T04:13:37.003Z,34.33
2017-12-02T04:16:09.767Z,34.97
2017-12-02T04:18:42.548Z,32.33
2017-12-02T04:21:15.116Z,34.33
2017-12-02T04:23:47.745Z,30.80
2017-12-02T04:26:20.294Z,29.70
2017-12-02T04:28:52.836Z,30.73
2017-12-02T04:31:26.075Z,28.67
2017-12-02T04:33:59.503Z,23.53
2017-12-02T04:36:32.166Z,27.93
2017-12-02T04:39:05.975Z,25.20
2017-12-02T04:41:39.150Z,25.67
2017-12-02T04:44:11.810Z,26.50
2017-12-02T04:46:45.399Z,25.90
2017-12-02T04:49:18.722Z,24.80
2017-12-02T04:51:52.054Z,26.13
2017-12-02T04:54:24.558Z,23.43
2017-12-02T04:56:57.834Z,18.17
2017-12-02T04:59:30.809Z,19.03
2017-12-02T05:02:04.206Z,24.60
2017-12-02T05:04:37.628Z,21.60
2017-12-02T05:07:10.454Z,16.63
2017-12-02T05:09:43.229Z,15.53
2017-12-02T05:12:15.991Z,32.00
2017-12-02T05:14:48.386Z,31.73
2017-12-02T05:17:20.961Z,27.87
2017-12-02T05:19:53.380Z,18.77
2017-12-02T05:22:26.634Z,22.43
2017-12-02T05:25:00.271Z,22.07
2017-12-02T05:27:33.542Z,29.23
2017-12-02T05:30:06.913Z,26.20
2017-12-02T05:32:40.235Z,39.83
2017-12-02T05:35:13.886Z,41.73
2017-12-02T05:37:47.490Z,44.87
2017-12-02T05:40:20.102Z,44.53
2017-12-02T05:42:52.522Z,36.70
2017-12-02T05:45:25.930Z,65.30
2017-12-02T05:47:58.425Z,68.13
2017-12-02T05:50:30.822Z,104.63
2017-12-02T05:53:04.290Z,36.57
2017-12-02T05:55:37.551Z,181.77
2017-12-02T05:58:10.219Z,196.17
2017-12-02T06:00:43.387Z,92.77
2017-12-02T06:03:17.290Z,284.20
2017-12-02T06:05:49.934Z,176.73
2017-12-02T06:08:22.502Z,40.37
2017-12-02T06:10:54.998Z,100.03
2017-12-02T06:13:27.397Z,169.57
2017-12-02T06:16:00.395Z,125.53
2017-12-02T06:18:33.792Z,169.33
2017-12-02T06:21:07.285Z,131.73
2017-12-02T06:23:40.552Z,42.70
2017-12-02T06:26:13.490Z,92.37
2017-12-02T06:28:46.154Z,81.00
2017-12-02T06:31:18.633Z,63.37
2017-12-02T06:33:52.855Z,108.03
2017-12-02T06:36:25.429Z,123.07
2017-12-02T06:38:59.582Z,135.40
2017-12-02T06:41:32.300Z,75.57
2017-12-02T06:44:05.799Z,64.30
2017-12-02T06:46:38.451Z,64.77
2017-12-02T06:49:10.929Z,58.43
2017-12-02T06:51:45.090Z,176.30
2017-12-02T06:54:17.725Z,230.90
2017-12-02T06:56:51.054Z,82.77
2017-12-02T06:59:24.196Z,221.27
2017-12-02T07:01:56.891Z,120.30
2017-12-02T07:04:29.359Z,155.37
2017-12-02T07:07:03.439Z,404.30
2017-12-02T07:09:36.202Z,187.97
2017-12-02T07:12:10.289Z,74.87
2017-12-02T07:14:43.911Z,85.27
2017-12-02T07:17:16.626Z,143.83
2017-12-02T07:19:49.551Z,81.57
2017-12-02T07:22:23.012Z,84.40
2017-12-02T07:24:56.284Z,93.13
2017-12-02T07:27:29.991Z,113.60
2017-12-02T07:30:03.692Z,65.90
2017-12-02T07:32:36.414Z,97.63
2017-12-02T07:35:09.099Z,87.60
2017-12-02T07:37:43.029Z,121.73
2017-12-02T07:40:15.911Z,75.43
2017-12-02T07:42:55.911Z,84.83
2017-12-02T07:45:28.586Z,91.43
2017-12-02T07:48:01.802Z,100.10
2017-12-02T07:50:34.910Z,91.37
2017-12-02T07:53:07.652Z,105.97
2017-12-02T07:55:41.779Z,83.93
2017-12-02T07:58:14.658Z,83.13
2017-12-02T08:00:48.023Z,71.20
2017-12-02T08:03:21.396Z,77.43
2017-12-02T08:05:54.331Z,62.53
2017-12-02T08:08:27.058Z,64.77
2017-12-02T08:10:59.863Z,58.03
2017-12-02T08:13:33.149Z,81.20
2017-12-02T08:16:06.871Z,62.80
2017-12-02T08:18:40.514Z,75.83
2017-12-02T08:21:13.155Z,62.30
2017-12-02T08:23:46.534Z,62.50
2017-12-02T08:26:20.547Z,57.37
2017-12-02T08:28:53.810Z,65.43
2017-12-02T08:31:27.710Z,69.10
2017-12-02T08:34:00.318Z,70.30
2017-12-02T08:36:33.764Z,68.67
2017-12-02T08:39:07.103Z,54.80
2017-12-02T08:41:40.475Z,72.27
2017-12-02T08:44:12.965Z,63.83
2017-12-02T08:46:45.493Z,62.87
2017-12-02T08:49:18.194Z,67.03
2017-12-02T08:51:51.811Z,71.17
2017-12-02T08:54:24.625Z,56.73
2017-12-02T08:56:57.142Z,65.83
2017-12-02T08:59:29.506Z,46.43
2017-12-02T09:02:03.280Z,57.37
2017-12-02T09:04:36.583Z,53.23
2017-12-02T09:07:10.730Z,65.53
2017-12-02T09:09:43.210Z,63.23
2017-12-02T09:12:16.582Z,62.77
2017-12-02T09:14:49.159Z,55.27
2017-12-02T09:17:21.570Z,67.63
2017-12-02T09:19:54.083Z,58.87
2017-12-02T09:22:26.618Z,63.57
2017-12-02T09:24:59.821Z,61.50
2017-12-02T09:27:32.832Z,67.93
2017-12-02T09:30:06.911Z,60.07
2017-12-02T09:32:40.795Z,47.00
2017-12-02T09:35:13.626Z,57.87
2017-12-02T09:37:46.231Z,49.67
2017-12-02T09:40:19.434Z,65.23
2017-12-02T09:42:53.134Z,60.27
2017-12-02T09:45:26.207Z,54.90
2017-12-02T09:47:58.837Z,56.87
2017-12-02T09:50:31.710Z,55.60
2017-12-02T09:53:04.894Z,57.33
2017-12-02T09:55:37.647Z,49.77
2017-12-02T09:58:10.174Z,39.33
2017-12-02T10:00:42.966Z,54.87
2017-12-02T10:03:16.367Z,45.83
2017-12-02T10:05:49.915Z,43.37
2017-12-02T10:08:22.849Z,48.00
2017-12-02T10:10:55.322Z,46.17
2017-12-02T10:13:27.720Z,46.20
2017-12-02T10:16:00.791Z,45.20
2017-12-02T10:18:34.582Z,50.93
2017-12-02T10:21:07.953Z,50.70
2017-12-02T10:23:40.897Z,52.37
2017-12-02T10:26:14.903Z,58.47
2017-12-02T10:28:48.650Z,39.90
2017-12-02T10:31:21.306Z,44.80
2017-12-02T10:33:54.167Z,50.80
2017-12-02T10:36:26.550Z,38.87
2017-12-02T10:38:59.806Z,43.37
2017-12-02T10:41:32.222Z,42.77
2017-12-02T10:44:04.823Z,40.97
2017-12-02T10:46:38.208Z,41.40
2017-12-02T10:49:12.211Z,34.03
2017-12-02T10:51:44.893Z,43.13
2017-12-02T10:54:18.035Z,37.77
2017-12-02T10:56:50.761Z,43.60
2017-12-02T10:59:23.250Z,45.93
2017-12-02T11:01:57.214Z,52.37
2017-12-02T11:04:30.743Z,47.83
2017-12-02T11:07:03.470Z,45.47
2017-12-02T11:09:37.603Z,39.87
2017-12-02T11:12:11.167Z,51.20
2017-12-02T11:14:44.075Z,54.73
2017-12-02T11:17:16.476Z,45.93
2017-12-02T11:19:48.891Z,46.30
2017-12-02T11:22:21.218Z,43.13
2017-12-02T11:24:53.599Z,38.60
2017-12-02T11:27:26.151Z,40.13
2017-12-02T11:30:00.261Z,40.63
2017-12-02T11:32:32.913Z,38.63
2017-12-02T11:35:06.179Z,46.13
2017-12-02T11:37:39.430Z,43.07
2017-12-02T11:40:12.679Z,35.70
2017-12-02T11:42:46.390Z,40.33
2017-12-02T11:45:18.989Z,41.07
2017-12-02T11:47:51.367Z,39.97
2017-12-02T11:50:24.207Z,38.97
2017-12-02T11:52:56.961Z,44.20
2017-12-02T11:55:30.626Z,39.80
2017-12-02T11:58:03.462Z,39.20
2017-12-02T12:00:37.092Z,36.57
2017-12-02T12:03:09.669Z,41.33
2017-12-02T12:05:43.011Z,39.57
2017-12-02T12:08:16.679Z,38.00
2017-12-02T12:10:49.280Z,38.10
2017-12-02T12:13:22.754Z,39.70
2017-12-02T12:15:55.834Z,40.23
2017-12-02T12:18:28.584Z,45.33
2017-12-02T12:21:00.961Z,42.43
2017-12-02T12:23:34.321Z,43.57
2017-12-02T12:26:08.021Z,44.43
2017-12-02T12:28:41.700Z,46.53
2017-12-02T12:31:14.564Z,42.57
2017-12-02T12:33:47.909Z,48.73
2017-12-02T12:36:21.022Z,48.90
2017-12-02T12:38:54.493Z,46.63
2017-12-02T12:41:28.128Z,43.60
2017-12-02T12:44:00.799Z,45.70
2017-12-02T12:46:34.050Z,43.27
2017-12-02T12:49:07.422Z,49.43
2017-12-02T12:51:40.316Z,47.33
2017-12-02T12:54:13.594Z,57.27
2017-12-02T12:56:46.522Z,48.87
2017-12-02T12:59:19.425Z,49.17
2017-12-02T13:01:53.554Z,41.20
2017-12-02T13:04:26.505Z,50.00
2017-12-02T13:07:00.215Z,48.23
2017-12-02T13:09:33.552Z,49.03
2017-12-02T13:12:06.636Z,46.23
2017-12-02T13:14:39.376Z,53.30
2017-12-02T13:17:11.827Z,45.63
2017-12-02T13:19:44.403Z,43.23
2017-12-02T13:22:17.164Z,50.70
2017-12-02T13:24:49.625Z,50.80
2017-12-02T13:27:22.246Z,43.20
2017-12-02T13:29:55.364Z,39.83
2017-12-02T13:32:29.070Z,38.37
2017-12-02T13:35:02.213Z,49.37
2017-12-02T13:37:35.731Z,46.63
2017-12-02T13:40:08.542Z,46.77
2017-12-02T13:42:40.837Z,45.77
2017-12-02T13:45:13.224Z,44.00
2017-12-02T13:47:45.735Z,44.67
2017-12-02T13:50:18.279Z,45.83
2017-12-02T13:52:50.825Z,42.00
2017-12-02T13:55:23.150Z,47.57
2017-12-02T13:57:56.370Z,41.20
2017-12-02T14:00:29.598Z,43.47
2017-12-02T14:03:02.854Z,50.00
2017-12-02T14:05:36.141Z,36.63
2017-12-02T14:08:08.584Z,43.17
2017-12-02T14:10:42.639Z,45.00
2017-12-02T14:13:15.331Z,42.33
2017-12-02T14:15:47.670Z,40.30
2017-12-02T14:18:20.808Z,46.83
2017-12-02T14:20:53.286Z,36.67
2017-12-02T14:23:27.362Z,41.40
2017-12-02T14:26:00.620Z,43.73
2017-12-02T14:28:33.233Z,41.20
2017-12-02T14:31:06.449Z,38.67
2017-12-02T14:33:38.911Z,44.80
2017-12-02T14:36:12.313Z,45.97
2017-12-02T14:38:46.205Z,41.40
2017-12-02T14:41:19.481Z,39.47
2017-12-02T14:43:52.033Z,44.27
2017-12-02T14:46:26.014Z,42.87
2017-12-02T14:48:59.390Z,43.77
2017-12-02T14:51:32.074Z,41.97
2017-12-02T14:54:04.390Z,47.53
2017-12-02T14:56:38.479Z,47.37
2017-12-02T14:59:11.062Z,57.97
2017-12-02T15:01:43.497Z,42.90
2017-12-02T15:04:16.632Z,47.93
2017-12-02T15:06:50.049Z,46.07
2017-12-02T15:09:23.239Z,48.73
2017-12-02T15:11:55.829Z,49.77
2017-12-02T15:14:28.155Z,46.07
2017-12-02T15:17:01.481Z,51.97
2017-12-02T15:19:34.832Z,46.50
2017-12-02T15:22:08.843Z,49.10
2017-12-02T15:24:41.583Z,49.63
2017-12-02T15:27:14.859Z,54.17
2017-12-02T15:29:48.202Z,47.57
2017-12-02T15:32:21.542Z,50.13
2017-12-02T15:34:54.917Z,51.57
2017-12-02T15:37:28.099Z,51.60
2017-12-02T15:40:01.411Z,69.03
2017-12-02T15:42:34.666Z,60.27
2017-12-02T15:45:08.647Z,61.90
2017-12-02T15:47:41.031Z,54.17
2017-12-02T15:50:14.303Z,58.43
2017-12-02T15:52:47.654Z,60.60
2017-12-02T15:55:22.842Z,77.00
2017-12-02T15:57:55.271Z,55.30
2017-12-02T16:00:28.589Z,93.60
2017-12-02T16:03:02.682Z,68.90
2017-12-02T16:05:35.205Z,56.47
2017-12-02T16:08:09.240Z,48.60
2017-12-02T16:10:41.838Z,53.60
2017-12-02T16:13:15.674Z,82.80
2017-12-02T16:15:48.321Z,87.40
2017-12-02T16:18:20.662Z,65.87
2017-12-02T16:20:53.950Z,54.47
2017-12-02T16:23:26.306Z,57.43
2017-12-02T16:25:59.662Z,61.50
2017-12-02T16:28:32.870Z,61.63
2017-12-02T16:31:06.110Z,58.80
2017-12-02T16:33:38.674Z,61.17
2017-12-02T16:36:11.922Z,58.23
2017-12-02T16:38:44.285Z,65.30
2017-12-02T16:41:17.563Z,56.83
2017-12-02T16:43:50.883Z,63.03
2017-12-02T16:46:25.002Z,62.70
2017-12-02T16:48:57.671Z,61.77
2017-12-02T16:51:30.888Z,54.47
2017-12-02T16:54:04.226Z,71.93
2017-12-02T16:56:36.589Z,69.60
2017-12-02T16:59:09.712Z,63.83
2017-12-02T17:01:42.306Z,60.07
2017-12-02T17:04:16.420Z,61.00
2017-12-02T17:06:48.974Z,68.20
2017-12-02T17:09:22.301Z,54.03
2017-12-02T17:11:54.742Z,58.27
2017-12-02T17:14:27.802Z,68.13
2017-12-02T17:17:00.374Z,48.07
2017-12-02T17:19:33.543Z,60.03
2017-12-02T17:22:06.054Z,60.87
2017-12-02T17:24:40.094Z,65.03
2017-12-02T17:27:12.762Z,69.10
2017-12-02T17:29:45.886Z,67.77
2017-12-02T17:32:18.434Z,62.33
2017-12-02T17:34:51.916Z,63.40
2017-12-02T17:37:25.802Z,61.67
2017-12-02T17:39:58.462Z,76.67
2017-12-02T17:42:30.832Z,63.13
2017-12-02T17:45:04.147Z,59.60
2017-12-02T17:47:37.438Z,56.87
2017-12-02T17:50:11.420Z,53.10
2017-12-02T17:52:44.015Z,52.23
2017-12-02T17:55:17.173Z,60.60
2017-12-02T17:57:50.568Z,53.90
2017-12-02T18:00:23.723Z,64.00
2017-12-02T18:02:57.031Z,68.80
2017-12-02T18:05:29.787Z,60.67
2017-12-02T18:08:02.267Z,61.23
2017-12-02T18:10:36.434Z,54.17
2017-12-02T18:13:09.144Z,51.50
2017-12-02T18:15:42.379Z,52.27
2017-12-02T18:18:15.579Z,54.40
2017-12-02T18:20:48.830Z,41.43
2017-12-02T18:23:22.071Z,47.87
2017-12-02T18:25:55.190Z,46.90
2017-12-02T18:28:28.482Z,45.23
2017-12-02T18:31:01.193Z,52.13
2017-12-02T18:33:35.138Z,52.67
2017-12-02T18:36:07.674Z,48.07
2017-12-02T18:38:40.146Z,49.70
2017-12-02T18:41:13.305Z,46.77
2017-12-02T18:43:46.103Z,44.80
2017-12-02T18:46:20.106Z,45.40
2017-12-02T18:48:53.399Z,42.63
2017-12-02T18:51:26.739Z,47.60
2017-12-02T18:54:00.318Z,47.07
2017-12-02T18:56:32.785Z,45.07
2017-12-02T18:59:06.791Z,52.27
2017-12-02T19:01:39.284Z,48.43
2017-12-02T19:04:13.374Z,48.97
2017-12-02T19:06:46.846Z,50.23
2017-12-02T19:09:19.295Z,84.30
2017-12-02T19:11:53.276Z,50.43
2017-12-02T19:14:25.950Z,60.93
2017-12-02T19:16:59.951Z,66.20
2017-12-02T19:19:33.219Z,57.40
2017-12-02T19:22:06.821Z,59.10
2017-12-02T19:24:40.142Z,56.27
2017-12-02T19:27:13.233Z,59.93
2017-12-02T19:29:45.919Z,58.17
2017-12-02T19:32:19.885Z,57.70
2017-12-02T19:34:53.317Z,50.03
2017-12-02T19:37:26.546Z,54.83
2017-12-02T19:39:59.051Z,67.80
2017-12-02T19:42:32.291Z,70.73
2017-12-02T19:45:05.794Z,66.73
2017-12-02T19:47:39.155Z,64.33
2017-12-02T19:50:11.790Z,60.63
2017-12-02T19:52:44.087Z,70.43
2017-12-02T19:55:17.263Z,56.03
2017-12-02T19:57:49.701Z,54.17
2017-12-02T20:00:23.897Z,57.80
2017-12-02T20:02:56.435Z,62.43
2017-12-02T20:05:29.630Z,43.40
2017-12-02T20:08:03.025Z,53.57
2017-12-02T20:10:35.635Z,47.90
2017-12-02T20:13:09.735Z,50.20
2017-12-02T20:15:42.296Z,47.90
2017-12-02T20:18:16.606Z,41.77
2017-12-02T20:20:49.873Z,47.67
2017-12-02T20:23:23.154Z,58.03
2017-12-02T20:25:56.397Z,49.40
2017-12-02T20:28:30.368Z,59.10
2017-12-02T20:31:02.949Z,56.77
2017-12-02T20:33:37.287Z,53.90
2017-12-02T20:36:13.418Z,53.73
2017-12-02T20:38:46.788Z,53.00
2017-12-02T20:41:20.068Z,44.67
2017-12-02T20:43:53.433Z,45.47
2017-12-02T20:46:25.988Z,59.03
2017-12-02T20:48:59.211Z,50.03
2017-12-02T20:51:33.452Z,58.00
2017-12-02T20:54:06.044Z,52.80
2017-12-02T20:56:39.408Z,61.70
2017-12-02T20:59:13.447Z,54.57
2017-12-02T21:01:46.090Z,62.27
2017-12-02T21:04:20.104Z,51.23
2017-12-02T21:06:52.814Z,54.70
2017-12-02T21:09:25.197Z,48.60
2017-12-02T21:11:59.198Z,52.67
2017-12-02T21:14:31.637Z,49.17
2017-12-02T21:17:04.765Z,49.03
2017-12-02T21:19:37.983Z,42.43
2017-12-02T21:22:10.674Z,49.73
2017-12-02T21:24:44.617Z,43.27
2017-12-02T21:27:18.114Z,39.93
2017-12-02T21:29:50.673Z,49.23
2017-12-02T21:32:23.228Z,54.30
2017-12-02T21:34:56.412Z,43.80
2017-12-02T21:37:29.686Z,48.83
2017-12-02T21:40:02.951Z,48.37
2017-12-02T21:42:36.293Z,45.90
2017-12-02T21:45:09.572Z,42.50
2017-12-02T21:47:42.786Z,46.23
2017-12-02T21:50:16.876Z,44.63
2017-12-02T21:52:50.304Z,50.83
2017-12-02T21:55:23.420Z,44.70
2017-12-02T21:57:57.005Z,47.03
2017-12-02T22:00:29.550Z,47.67
2017-12-02T22:03:02.846Z,41.67
2017-12-02T22:05:36.122Z,50.50
2017-12-02T22:08:09.994Z,53.43
2017-12-02T22:10:42.623Z,48.33
2017-12-02T22:13:15.186Z,53.80
2017-12-02T22:15:49.158Z,46.97
2017-12-02T22:18:21.802Z,59.50
2017-12-02T22:20:54.979Z,49.00
2017-12-02T22:23:27.535Z,51.23
2017-12-02T22:26:00.730Z,51.17
2017-12-02T22:28:34.150Z,52.50
2017-12-02T22:31:06.551Z,53.80
2017-12-02T22:33:39.921Z,46.73
2017-12-02T22:36:13.214Z,48.93
2017-12-02T22:38:45.783Z,46.83
2017-12-02T22:41:19.786Z,39.37
2017-12-02T22:43:53.455Z,49.30
2017-12-02T22:46:26.697Z,40.40
2017-12-02T22:48:59.436Z,55.87
2017-12-02T22:51:33.570Z,48.03
2017-12-02T22:54:06.040Z,49.40
2017-12-02T22:56:40.094Z,58.33
2017-12-02T22:59:12.870Z,44.20
2017-12-02T23:01:46.845Z,46.73
2017-12-02T23:04:19.620Z,47.57
2017-12-02T23:06:53.708Z,53.20
2017-12-02T23:09:27.083Z,51.50
2017-12-02T23:11:59.763Z,48.23
2017-12-02T23:14:33.118Z,40.53
2017-12-02T23:17:06.403Z,47.53
2017-12-02T23:19:39.013Z,49.20
2017-12-02T23:22:12.279Z,50.67
2017-12-02T23:24:45.554Z,49.87
2017-12-02T23:27:18.011Z,44.50
2017-12-02T23:29:51.342Z,47.50
2017-12-02T23:32:24.438Z,45.17
2017-12-02T23:34:58.090Z,48.43
2017-12-02T23:37:31.872Z,51.87
2017-12-02T23:40:04.469Z,49.67
2017-12-02T23:42:38.390Z,50.00
2017-12-02T23:45:12.095Z,50.10
2017-12-02T23:47:46.552Z,44.63
2017-12-02T23:50:19.935Z,51.57
2017-12-02T23:52:53.726Z,49.87
2017-12-02T23:55:26.323Z,50.20
2017-12-02T23:58:00.670Z,57.20
